Main page
METAR-TAF:

METAR-TAF

Airports :

South Texas International Airport at Edinburg

Edinburg, Texas, United States

latitude: 26-26-31N, longitude: 098-07-46W, elevation: 79 ft

Current weather observation

The report was made 28 minutes ago, at 18:15 UTC
Wind 9 mph from the North/Northwest
Temperature 54°F
Humidity 94%
Pressure 30.15 in. Hg
Visibility: 10 miles
Overcast at a height of 500 ft
drizzle

METAR: KEBG 191815Z AUTO 34008KT 10SM DZ OVC005 12/11 A3015 RMK AO2 T01240108

Time: 12:43 (18:43 UTC)


TAF: missing

Weather observations and forecasts of more than 4000 airports (METAR and TAF reports).

The available stations are represented by yellow and red dots on the map.

Hover mouse over dot to see the name of the station.

Then click to see weather observations and forecasts.

To change the map : click on the green buttons with a black cross to zoom in, on the green button with a dash to zoom out, or on the green arrows for adjacent maps.


METAR-TAF: